createdAt,value
2018-10-17T00:00:41.277Z,10.30
2018-10-17T00:01:41.327Z,10.29
2018-10-17T00:02:41.353Z,10.33
2018-10-17T00:03:41.393Z,10.25
2018-10-17T00:04:41.433Z,10.29
2018-10-17T00:05:41.576Z,10.33
2018-10-17T00:06:41.512Z,10.30
2018-10-17T00:07:41.552Z,10.27
2018-10-17T00:08:41.593Z,10.29
2018-10-17T00:09:41.632Z,10.40
2018-10-17T00:10:41.671Z,10.34
2018-10-17T00:11:41.710Z,10.34
2018-10-17T00:12:41.752Z,10.36
2018-10-17T00:13:41.795Z,10.34
2018-10-17T00:14:41.834Z,10.38
2018-10-17T00:15:41.870Z,10.40
2018-10-17T00:16:41.910Z,10.34
2018-10-17T00:17:41.949Z,10.41
2018-10-17T00:18:41.988Z,10.41
2018-10-17T00:19:42.029Z,10.41
2018-10-17T00:20:42.069Z,10.41
2018-10-17T00:21:42.107Z,10.36
2018-10-17T00:22:42.153Z,10.33
2018-10-17T00:23:42.188Z,10.44
2018-10-17T00:24:42.230Z,10.45
2018-10-17T00:25:42.266Z,10.36
2018-10-17T00:26:42.315Z,10.40
2018-10-17T00:27:42.345Z,10.36
2018-10-17T00:28:42.384Z,10.33
2018-10-17T00:29:42.425Z,10.40
2018-10-17T00:30:42.464Z,10.38
2018-10-17T00:31:42.502Z,10.36
2018-10-17T00:32:42.546Z,10.33
2018-10-17T00:33:42.581Z,10.23
2018-10-17T00:34:42.623Z,10.32
2018-10-17T00:35:42.660Z,10.33
2018-10-17T00:36:42.702Z,10.30
2018-10-17T00:37:42.739Z,10.36
2018-10-17T00:38:42.779Z,10.26
2018-10-17T00:39:42.819Z,10.30
2018-10-17T00:40:42.858Z,10.29
2018-10-17T00:41:42.901Z,10.27
2018-10-17T00:42:42.937Z,10.30
2018-10-17T00:43:42.979Z,10.22
2018-10-17T00:44:43.017Z,10.20
2018-10-17T00:45:43.056Z,10.22
2018-10-17T00:46:43.096Z,10.22
2018-10-17T00:47:43.137Z,10.23
2018-10-17T00:48:43.176Z,10.30
2018-10-17T00:49:43.215Z,10.32
2018-10-17T00:50:43.254Z,10.27
2018-10-17T00:51:43.294Z,10.18
2018-10-17T00:52:43.333Z,10.30
2018-10-17T00:53:43.375Z,10.25
2018-10-17T00:54:43.412Z,10.22
2018-10-17T00:55:43.452Z,10.25
2018-10-17T00:56:43.494Z,10.25
2018-10-17T00:57:43.537Z,10.30
2018-10-17T00:58:43.578Z,10.32
2018-10-17T00:59:43.611Z,10.40
2018-10-17T01:00:43.658Z,10.32
2018-10-17T01:01:43.691Z,10.36
2018-10-17T01:02:43.731Z,10.29
2018-10-17T01:03:43.773Z,10.32
2018-10-17T01:04:43.808Z,10.32
2018-10-17T01:05:43.847Z,10.38
2018-10-17T01:06:43.933Z,10.30
2018-10-17T01:07:43.927Z,10.38
2018-10-17T01:08:43.970Z,10.33
2018-10-17T01:09:44.005Z,10.34
2018-10-17T01:10:44.055Z,10.36
2018-10-17T01:11:44.084Z,10.27
2018-10-17T01:12:44.132Z,10.25
2018-10-17T01:13:44.164Z,10.33
2018-10-17T01:14:44.203Z,10.33
2018-10-17T01:15:44.245Z,10.25
2018-10-17T01:16:44.287Z,10.29
2018-10-17T01:17:44.336Z,10.34
2018-10-17T01:18:44.362Z,10.36
2018-10-17T01:19:44.403Z,10.32
2018-10-17T01:20:44.441Z,10.23
2018-10-17T01:21:44.480Z,10.33
2018-10-17T01:22:44.521Z,10.32
2018-10-17T01:23:44.562Z,10.38
2018-10-17T01:24:44.615Z,10.32
2018-10-17T01:25:44.639Z,10.25
2018-10-17T01:26:44.680Z,10.30
2018-10-17T01:27:44.719Z,10.33
2018-10-17T01:28:44.757Z,10.29
2018-10-17T01:29:44.800Z,10.33
2018-10-17T01:30:44.837Z,10.34
2018-10-17T01:31:44.879Z,10.32
2018-10-17T01:32:44.918Z,10.32
2018-10-17T01:33:44.957Z,10.40
2018-10-17T01:34:44.995Z,10.41
2018-10-17T01:35:45.034Z,10.36
2018-10-17T01:36:45.076Z,10.30
2018-10-17T01:37:45.114Z,10.33
2018-10-17T01:38:45.153Z,10.29
2018-10-17T01:39:45.193Z,10.30
2018-10-17T01:40:45.235Z,10.22
2018-10-17T01:41:45.273Z,10.25
2018-10-17T01:42:45.313Z,10.26
2018-10-17T01:43:45.352Z,10.25
2018-10-17T01:44:45.392Z,10.17
2018-10-17T01:45:45.432Z,10.15
2018-10-17T01:46:45.474Z,10.18
2018-10-17T01:47:45.511Z,10.17
2018-10-17T01:48:45.555Z,10.18
2018-10-17T01:49:45.589Z,10.15
2018-10-17T01:50:45.629Z,10.11
2018-10-17T01:51:45.669Z,10.14
2018-10-17T01:52:45.709Z,10.14
2018-10-17T01:53:45.747Z,10.09
2018-10-17T01:54:45.790Z,10.08
2018-10-17T01:55:45.825Z,10.14
2018-10-17T01:56:45.868Z,10.15
2018-10-17T01:57:45.913Z,10.11
2018-10-17T01:58:45.945Z,10.15
2018-10-17T01:59:45.985Z,10.14
2018-10-17T02:00:46.023Z,10.18
2018-10-17T02:01:46.064Z,10.07
2018-10-17T02:02:46.102Z,10.18
2018-10-17T02:03:46.141Z,10.09
2018-10-17T02:04:46.181Z,10.20
2018-10-17T02:05:46.220Z,10.18
2018-10-17T02:06:46.259Z,10.22
2018-10-17T02:07:46.298Z,10.18
2018-10-17T02:08:46.347Z,10.32
2018-10-17T02:09:46.379Z,10.18
2018-10-17T02:10:46.416Z,10.18
2018-10-17T02:11:46.456Z,10.22
2018-10-17T02:12:46.496Z,10.23
2018-10-17T02:13:46.536Z,10.30
2018-10-17T02:14:46.583Z,10.32
2018-10-17T02:15:46.615Z,10.34
2018-10-17T02:16:46.654Z,10.23
2018-10-17T02:17:46.694Z,10.22
2018-10-17T02:18:46.734Z,10.17
2018-10-17T02:19:46.773Z,10.18
2018-10-17T02:20:46.814Z,10.17
2018-10-17T02:21:46.853Z,10.22
2018-10-17T02:22:46.891Z,10.22
2018-10-17T02:23:46.933Z,10.32
2018-10-17T02:24:46.972Z,10.18
2018-10-17T02:25:47.016Z,10.20
2018-10-17T02:26:47.049Z,10.18
2018-10-17T02:27:47.088Z,10.25
2018-10-17T02:28:47.127Z,10.27
2018-10-17T02:29:47.204Z,10.22
2018-10-17T02:30:47.211Z,10.23
2018-10-17T02:31:47.249Z,10.34
2018-10-17T02:32:47.286Z,10.20
2018-10-17T02:33:47.326Z,10.34
2018-10-17T02:34:47.364Z,10.26
2018-10-17T02:35:47.405Z,10.30
2018-10-17T02:36:47.444Z,10.34
2018-10-17T02:37:47.483Z,10.23
2018-10-17T02:38:47.521Z,10.30
2018-10-17T02:39:47.647Z,10.30
2018-10-17T02:40:47.602Z,10.34
2018-10-17T02:41:47.642Z,10.30
2018-10-17T02:42:47.680Z,10.25
2018-10-17T02:43:47.720Z,10.33
2018-10-17T02:44:47.762Z,10.30
2018-10-17T02:45:47.800Z,10.34
2018-10-17T02:46:47.841Z,10.36
2018-10-17T02:47:47.878Z,10.34
2018-10-17T02:48:47.933Z,10.27
2018-10-17T02:49:47.959Z,10.41
2018-10-17T02:50:47.995Z,10.36
2018-10-17T02:51:48.037Z,10.33
2018-10-17T02:52:48.080Z,10.36
2018-10-17T02:53:48.117Z,10.38
2018-10-17T02:54:48.155Z,10.27
2018-10-17T02:55:48.196Z,10.38
2018-10-17T02:56:48.235Z,10.36
2018-10-17T02:57:48.276Z,10.36
2018-10-17T02:58:48.315Z,10.40
2018-10-17T02:59:48.354Z,10.40
2018-10-17T03:00:48.395Z,10.41
2018-10-17T03:01:48.438Z,10.51
2018-10-17T03:02:48.472Z,10.40
2018-10-17T03:03:48.512Z,10.42
2018-10-17T03:04:48.553Z,10.40
2018-10-17T03:05:48.592Z,10.38
2018-10-17T03:06:48.632Z,10.51
2018-10-17T03:07:48.672Z,10.44
2018-10-17T03:08:48.716Z,10.44
2018-10-17T03:09:48.750Z,10.45
2018-10-17T03:10:48.789Z,10.44
2018-10-17T03:11:48.829Z,10.41
2018-10-17T03:12:48.870Z,10.40
2018-10-17T03:13:48.928Z,10.36
2018-10-17T03:14:48.946Z,10.38
2018-10-17T03:15:48.987Z,10.42
2018-10-17T03:16:49.026Z,10.36
2018-10-17T03:17:49.067Z,10.29
2018-10-17T03:18:49.106Z,10.26
2018-10-17T03:19:49.152Z,10.36
2018-10-17T03:20:49.193Z,10.34
2018-10-17T03:21:49.228Z,10.34
2018-10-17T03:22:49.267Z,10.34
2018-10-17T03:23:49.355Z,10.33
2018-10-17T03:24:49.345Z,10.34
2018-10-17T03:25:49.383Z,10.36
2018-10-17T03:26:49.425Z,10.25
2018-10-17T03:27:49.544Z,10.23
2018-10-17T03:28:49.502Z,10.22
2018-10-17T03:29:49.545Z,10.25
2018-10-17T03:30:49.582Z,10.18
2018-10-17T03:31:49.624Z,10.18
2018-10-17T03:32:49.663Z,10.15
2018-10-17T03:33:49.701Z,10.11
2018-10-17T03:34:49.740Z,10.15
2018-10-17T03:35:49.785Z,10.17
2018-10-17T03:36:49.824Z,10.09
2018-10-17T03:37:49.890Z,10.17
2018-10-17T03:38:49.898Z,10.17
2018-10-17T03:39:49.939Z,10.09
2018-10-17T03:40:49.978Z,10.15
2018-10-17T03:41:50.018Z,10.09
2018-10-17T03:42:50.057Z,10.14
2018-10-17T03:43:50.097Z,10.12
2018-10-17T03:44:50.144Z,10.17
2018-10-17T03:45:50.177Z,10.14
2018-10-17T03:46:50.216Z,10.14
2018-10-17T03:47:50.254Z,10.17
2018-10-17T03:48:50.300Z,10.08
2018-10-17T03:49:50.383Z,10.12
2018-10-17T03:50:50.376Z,10.17
2018-10-17T03:51:50.417Z,10.05
2018-10-17T03:52:50.454Z,10.11
2018-10-17T03:53:50.493Z,10.14
2018-10-17T03:54:50.532Z,10.12
2018-10-17T03:55:50.572Z,10.11
2018-10-17T03:56:50.621Z,10.17
2018-10-17T03:57:50.675Z,10.18
2018-10-17T03:58:50.703Z,10.09
2018-10-17T03:59:50.731Z,10.22
2018-10-17T04:00:50.776Z,10.23
2018-10-17T04:01:50.810Z,10.20
2018-10-17T04:02:50.898Z,10.22
2018-10-17T04:03:50.890Z,10.20
2018-10-17T04:04:50.933Z,10.12
2018-10-17T04:05:50.968Z,10.07
2018-10-17T04:06:51.008Z,10.14
2018-10-17T04:07:51.046Z,10.14
2018-10-17T04:08:51.088Z,10.12
2018-10-17T04:09:51.139Z,10.15
2018-10-17T04:10:51.213Z,10.17
2018-10-17T04:11:51.206Z,10.18
2018-10-17T04:12:51.304Z,10.09
2018-10-17T04:13:51.288Z,10.15
2018-10-17T04:14:51.325Z,10.17
2018-10-17T04:15:51.368Z,10.18
2018-10-17T04:16:51.433Z,10.25
2018-10-17T04:17:51.443Z,10.23
2018-10-17T04:18:51.503Z,10.22
2018-10-17T04:19:51.522Z,10.23
2018-10-17T04:20:51.571Z,10.22
2018-10-17T04:21:51.601Z,10.11
2018-10-17T04:22:51.646Z,10.18
2018-10-17T04:23:51.678Z,10.17
2018-10-17T04:24:51.765Z,10.12
2018-10-17T04:25:51.760Z,10.11
2018-10-17T04:26:51.797Z,10.08
2018-10-17T04:27:51.840Z,10.26
2018-10-17T04:28:51.887Z,10.09
2018-10-17T04:29:51.927Z,10.15
2018-10-17T04:30:51.964Z,10.09
2018-10-17T04:31:51.998Z,10.12
2018-10-17T04:32:52.038Z,10.17
2018-10-17T04:33:52.113Z,10.07
2018-10-17T04:34:52.142Z,10.17
2018-10-17T04:35:52.160Z,10.08
2018-10-17T04:36:52.197Z,10.12
2018-10-17T04:37:52.234Z,10.09
2018-10-17T04:38:52.271Z,10.09
2018-10-17T04:39:52.312Z,10.09
2018-10-17T04:40:52.358Z,10.07
2018-10-17T04:41:52.394Z,9.94
2018-10-17T04:42:52.445Z,9.90
2018-10-17T04:43:52.468Z,9.91
2018-10-17T04:44:52.508Z,9.99
2018-10-17T04:45:52.548Z,9.91
2018-10-17T04:46:52.593Z,9.93
2018-10-17T04:47:52.628Z,9.94
2018-10-17T04:48:52.669Z,10.05
2018-10-17T04:49:52.706Z,10.09
2018-10-17T04:50:52.746Z,10.14
2018-10-17T04:51:52.785Z,10.11
2018-10-17T04:52:52.875Z,10.07
2018-10-17T04:53:52.875Z,10.05
2018-10-17T04:54:52.933Z,10.04
2018-10-17T04:55:52.948Z,10.08
2018-10-17T04:56:52.986Z,10.02
2018-10-17T04:57:53.083Z,10.02
2018-10-17T04:58:53.078Z,9.99
2018-10-17T04:59:53.101Z,10.04
2018-10-17T05:00:53.178Z,10.05
2018-10-17T05:01:53.180Z,10.09
2018-10-17T05:02:53.217Z,10.17
2018-10-17T05:03:53.257Z,10.07
2018-10-17T05:04:53.312Z,10.07
2018-10-17T05:05:53.343Z,9.96
2018-10-17T05:06:53.614Z,9.96
2018-10-17T05:07:53.416Z,9.96
2018-10-17T05:08:53.453Z,9.87
2018-10-17T05:09:53.494Z,9.91
2018-10-17T05:10:53.572Z,9.89
2018-10-17T05:11:53.576Z,9.89
2018-10-17T05:12:53.637Z,9.91
2018-10-17T05:13:53.651Z,9.89
2018-10-17T05:14:53.690Z,9.99
2018-10-17T05:15:53.730Z,9.93
2018-10-17T05:16:53.782Z,9.99
2018-10-17T05:17:53.809Z,9.97
2018-10-17T05:18:53.894Z,10.07
2018-10-17T05:19:53.888Z,10.05
2018-10-17T05:20:53.928Z,10.09
2018-10-17T05:21:53.967Z,10.09
2018-10-17T05:22:54.012Z,10.09
2018-10-17T05:23:54.046Z,10.07
2018-10-17T05:24:54.101Z,10.14
2018-10-17T05:25:54.128Z,10.04
2018-10-17T05:26:54.164Z,10.07
2018-10-17T05:27:54.202Z,9.99
2018-10-17T05:28:54.303Z,9.99
2018-10-17T05:29:54.418Z,10.07
2018-10-17T05:30:54.329Z,10.07
2018-10-17T05:31:54.359Z,10.02
2018-10-17T05:32:54.400Z,10.01
2018-10-17T05:33:54.439Z,9.97
2018-10-17T05:34:54.486Z,10.02
2018-10-17T05:35:54.523Z,10.04
2018-10-17T05:36:54.613Z,10.01
2018-10-17T05:37:54.645Z,10.11
2018-10-17T05:38:54.636Z,10.05
2018-10-17T05:39:54.677Z,9.96
2018-10-17T05:40:54.768Z,9.99
2018-10-17T05:41:54.754Z,10.07
2018-10-17T05:42:54.836Z,10.08
2018-10-17T05:43:54.833Z,10.05
2018-10-17T05:44:54.874Z,10.07
2018-10-17T05:45:54.914Z,10.02
2018-10-17T05:46:55.021Z,10.11
2018-10-17T05:47:54.991Z,10.09
2018-10-17T05:48:55.056Z,10.08
2018-10-17T05:49:55.073Z,10.11
2018-10-17T05:50:55.109Z,10.12
2018-10-17T05:51:55.151Z,10.05
2018-10-17T05:52:55.220Z,10.11
2018-10-17T05:53:55.228Z,10.07
2018-10-17T05:54:55.321Z,10.05
2018-10-17T05:55:55.308Z,10.07
2018-10-17T05:56:55.347Z,10.12
2018-10-17T05:57:55.397Z,10.07
2018-10-17T05:58:55.479Z,10.09
2018-10-17T05:59:55.467Z,10.08
2018-10-17T06:00:55.582Z,10.09
2018-10-17T06:01:55.606Z,10.09
2018-10-17T06:02:55.588Z,10.09
2018-10-17T06:03:55.626Z,10.07
2018-10-17T06:04:55.686Z,10.14
2018-10-17T06:05:55.705Z,10.15
2018-10-17T06:06:55.793Z,10.14
2018-10-17T06:07:55.785Z,10.14
2018-10-17T06:08:55.823Z,10.22
2018-10-17T06:09:55.864Z,10.11
2018-10-17T06:10:55.930Z,10.07
2018-10-17T06:11:55.940Z,10.08
2018-10-17T06:12:55.991Z,10.09
2018-10-17T06:13:56.024Z,10.07
2018-10-17T06:14:56.059Z,10.07
2018-10-17T06:15:56.102Z,10.07
2018-10-17T06:16:56.274Z,10.08
2018-10-17T06:17:56.178Z,10.07
2018-10-17T06:18:56.251Z,10.12
2018-10-17T06:19:56.267Z,10.11
2018-10-17T06:20:56.298Z,10.12
2018-10-17T06:21:56.339Z,10.09
2018-10-17T06:22:56.440Z,10.07
2018-10-17T06:23:56.415Z,10.07
2018-10-17T06:24:56.469Z,10.12
2018-10-17T06:25:56.494Z,10.23
2018-10-17T06:26:56.535Z,10.22
2018-10-17T06:27:56.572Z,10.23
2018-10-17T06:28:56.669Z,10.17
2018-10-17T06:29:56.652Z,10.18
2018-10-17T06:30:56.724Z,10.25
2018-10-17T06:31:56.732Z,10.34
2018-10-17T06:32:56.771Z,10.32
2018-10-17T06:33:56.861Z,10.20
2018-10-17T06:34:56.877Z,10.27
2018-10-17T06:35:56.888Z,10.22
2018-10-17T06:36:56.940Z,10.36
2018-10-17T06:37:56.969Z,10.38
2018-10-17T06:38:57.007Z,10.34
2018-10-17T06:39:57.049Z,10.36
2018-10-17T06:40:57.131Z,10.29
2018-10-17T06:41:57.127Z,10.38
2018-10-17T06:42:57.175Z,10.41
2018-10-17T06:43:57.235Z,10.38
2018-10-17T06:44:57.246Z,10.42
2018-10-17T06:45:57.288Z,10.45
2018-10-17T06:46:57.360Z,10.53
2018-10-17T06:47:57.371Z,10.53
2018-10-17T06:48:57.425Z,10.55
2018-10-17T06:49:57.445Z,10.56
2018-10-17T06:50:57.486Z,10.56
2018-10-17T06:51:57.523Z,10.60
2018-10-17T06:52:57.612Z,10.53
2018-10-17T06:53:57.636Z,10.55
2018-10-17T06:54:57.680Z,10.59
2018-10-17T06:55:57.682Z,10.60
2018-10-17T06:56:57.720Z,10.60
2018-10-17T06:57:57.760Z,10.60
2018-10-17T06:58:57.802Z,10.66
2018-10-17T06:59:57.840Z,10.59
2018-10-17T07:00:57.911Z,10.66
2018-10-17T07:01:58.017Z,10.63
2018-10-17T07:02:57.959Z,10.71
2018-10-17T07:03:57.998Z,10.74
2018-10-17T07:04:58.092Z,10.79
2018-10-17T07:05:58.078Z,10.73
2018-10-17T07:06:58.122Z,10.82
2018-10-17T07:07:58.160Z,10.73
2018-10-17T07:08:58.198Z,10.78
2018-10-17T07:09:58.238Z,10.76
2018-10-17T07:10:58.304Z,10.78
2018-10-17T07:11:58.323Z,10.76
2018-10-17T07:12:58.363Z,10.81
2018-10-17T07:13:58.395Z,10.81
2018-10-17T07:14:58.435Z,10.78
2018-10-17T07:15:58.628Z,10.79
2018-10-17T07:16:58.535Z,10.79
2018-10-17T07:17:58.565Z,10.94
2018-10-17T07:18:58.612Z,10.82
2018-10-17T07:19:58.642Z,10.92
2018-10-17T07:20:58.683Z,11.00
2018-10-17T07:21:58.714Z,10.96
2018-10-17T07:22:58.797Z,10.91
2018-10-17T07:23:58.798Z,11.02
2018-10-17T07:24:58.866Z,11.00
2018-10-17T07:25:58.883Z,11.00
2018-10-17T07:26:58.914Z,11.07
2018-10-17T07:27:58.955Z,11.04
2018-10-17T07:28:59.165Z,11.03
2018-10-17T07:29:59.058Z,11.06
2018-10-17T07:30:59.107Z,11.09
2018-10-17T07:31:59.117Z,11.14
2018-10-17T07:32:59.159Z,11.10
2018-10-17T07:33:59.195Z,11.14
2018-10-17T07:34:59.233Z,11.22
2018-10-17T07:35:59.277Z,11.29
2018-10-17T07:36:59.314Z,11.37
2018-10-17T07:37:59.354Z,11.36
2018-10-17T07:38:59.395Z,11.36
2018-10-17T07:39:59.435Z,11.39
2018-10-17T07:40:59.474Z,11.47
2018-10-17T07:41:59.526Z,11.51
2018-10-17T07:42:59.558Z,11.58
2018-10-17T07:43:59.599Z,11.64
2018-10-17T07:44:59.645Z,11.64
2018-10-17T07:45:59.676Z,11.72
2018-10-17T07:46:59.717Z,11.61
2018-10-17T07:47:59.770Z,11.61
2018-10-17T07:48:59.797Z,11.67
2018-10-17T07:49:59.852Z,11.70
2018-10-17T07:50:59.879Z,11.67
2018-10-17T07:51:59.915Z,11.72
2018-10-17T07:53:00.019Z,11.67
2018-10-17T07:54:00.011Z,11.72
2018-10-17T07:55:00.037Z,11.76
2018-10-17T07:56:00.081Z,11.78
2018-10-17T07:57:00.125Z,11.70
2018-10-17T07:58:00.163Z,11.73
2018-10-17T07:59:00.197Z,11.75
2018-10-17T08:00:00.325Z,11.79
2018-10-17T08:01:00.278Z,11.88
2018-10-17T08:02:00.319Z,11.94
2018-10-17T08:03:00.358Z,11.91
2018-10-17T08:04:00.400Z,12.04
2018-10-17T08:05:00.439Z,12.04
2018-10-17T08:06:00.557Z,11.91
2018-10-17T08:07:00.519Z,12.01
2018-10-17T08:08:00.561Z,11.88
2018-10-17T08:09:00.600Z,12.12
2018-10-17T08:10:00.704Z,12.16
2018-10-17T08:11:00.685Z,12.13
2018-10-17T08:12:00.730Z,12.16
2018-10-17T08:13:00.762Z,12.20
2018-10-17T08:14:00.818Z,12.10
2018-10-17T08:15:00.842Z,12.24
2018-10-17T08:16:00.882Z,12.38
2018-10-17T08:17:00.938Z,12.38
2018-10-17T08:18:01.020Z,12.38
2018-10-17T08:19:01.012Z,12.50
2018-10-17T08:20:01.044Z,12.49
2018-10-17T08:21:01.086Z,12.53
2018-10-17T08:22:01.126Z,12.64
2018-10-17T08:23:01.165Z,12.60
2018-10-17T08:24:01.242Z,12.67
2018-10-17T08:25:01.247Z,12.71
2018-10-17T08:26:01.288Z,12.64
2018-10-17T08:27:01.328Z,12.70
2018-10-17T08:28:01.371Z,12.77
2018-10-17T08:29:01.415Z,12.86
2018-10-17T08:30:01.530Z,12.90
2018-10-17T08:31:01.497Z,13.01
2018-10-17T08:32:01.533Z,13.01
2018-10-17T08:33:01.573Z,13.14
2018-10-17T08:34:01.632Z,13.19
2018-10-17T08:35:01.657Z,13.22
2018-10-17T08:36:01.836Z,13.29
2018-10-17T08:37:02.111Z,13.25
2018-10-17T08:38:01.864Z,13.29
2018-10-17T08:39:01.817Z,13.32
2018-10-17T08:40:01.857Z,13.33
2018-10-17T08:41:02.073Z,13.36
2018-10-17T08:42:01.957Z,13.39
2018-10-17T08:43:01.980Z,13.42
2018-10-17T08:44:02.085Z,13.49
2018-10-17T08:45:02.182Z,13.60
2018-10-17T08:46:02.103Z,13.60
2018-10-17T08:47:02.142Z,13.71
2018-10-17T08:48:02.186Z,13.67
2018-10-17T08:49:02.235Z,13.63
2018-10-17T08:50:02.274Z,13.71
2018-10-17T08:51:02.355Z,13.70
2018-10-17T08:52:02.502Z,13.77
2018-10-17T08:53:02.408Z,13.75
2018-10-17T08:54:02.437Z,13.70
2018-10-17T08:55:02.473Z,13.84
2018-10-17T08:56:02.546Z,13.84
2018-10-17T08:57:02.563Z,13.81
2018-10-17T08:58:02.697Z,13.92
2018-10-17T08:59:02.636Z,13.95
2018-10-17T09:00:02.696Z,13.91
2018-10-17T09:01:02.730Z,14.02
2018-10-17T09:02:02.843Z,14.06
2018-10-17T09:03:02.802Z,14.17
2018-10-17T09:04:02.843Z,14.10
2018-10-17T09:05:02.885Z,14.15
2018-10-17T09:06:03.006Z,14.17
2018-10-17T09:07:02.967Z,14.15
2018-10-17T09:08:03.033Z,14.20
2018-10-17T09:09:03.052Z,14.17
2018-10-17T09:10:03.094Z,14.07
2018-10-17T09:11:03.132Z,14.14
2018-10-17T09:12:03.199Z,14.18
2018-10-17T09:13:03.216Z,14.17
2018-10-17T09:14:03.311Z,14.25
2018-10-17T09:15:03.300Z,14.36
2018-10-17T09:16:03.348Z,14.47
2018-10-17T09:17:03.393Z,14.57
2018-10-17T09:18:03.453Z,14.61
2018-10-17T09:19:03.471Z,14.70
2018-10-17T09:20:03.732Z,14.81
2018-10-17T09:21:03.872Z,14.84
2018-10-17T09:22:03.975Z,14.73
2018-10-17T09:23:03.634Z,14.80
2018-10-17T09:24:03.746Z,14.84
2018-10-17T09:25:03.908Z,14.84
2018-10-17T09:26:03.760Z,14.88
2018-10-17T09:27:03.799Z,14.84
2018-10-17T09:28:03.898Z,14.62
2018-10-17T09:29:03.886Z,14.52
2018-10-17T09:30:04.029Z,14.37
2018-10-17T09:31:03.966Z,14.50
2018-10-17T09:32:04.010Z,14.52
2018-10-17T09:33:04.050Z,14.45
2018-10-17T09:34:04.171Z,14.50
2018-10-17T09:35:04.239Z,14.60
2018-10-17T09:36:04.181Z,14.64
2018-10-17T09:37:04.216Z,14.83
2018-10-17T09:38:04.258Z,14.81
2018-10-17T09:39:04.300Z,14.94
2018-10-17T09:40:04.461Z,14.86
2018-10-17T09:41:04.385Z,14.89
2018-10-17T09:42:04.432Z,14.91
2018-10-17T09:43:04.529Z,14.91
2018-10-17T09:44:04.528Z,14.96
2018-10-17T09:45:04.554Z,14.95
2018-10-17T09:46:04.686Z,14.89
2018-10-17T09:47:04.651Z,14.81
2018-10-17T09:48:04.705Z,14.80
2018-10-17T09:49:04.719Z,14.72
2018-10-17T09:50:04.763Z,14.70
2018-10-17T09:51:04.803Z,14.62
2018-10-17T09:52:04.907Z,14.50
2018-10-17T09:53:04.932Z,14.50
2018-10-17T09:54:04.992Z,14.43
2018-10-17T09:55:04.971Z,14.36
2018-10-17T09:56:05.014Z,14.24
2018-10-17T09:57:05.055Z,14.24
2018-10-17T09:58:05.134Z,14.17
2018-10-17T09:59:05.139Z,14.00
2018-10-17T10:00:05.268Z,14.03
2018-10-17T10:01:05.223Z,13.95
2018-10-17T10:02:05.312Z,13.95
2018-10-17T10:03:05.305Z,13.88
2018-10-17T10:04:05.422Z,13.82
2018-10-17T10:05:05.402Z,13.78
2018-10-17T10:06:05.461Z,13.79
2018-10-17T10:07:05.473Z,13.81
2018-10-17T10:08:05.516Z,13.75
2018-10-17T10:09:05.557Z,13.69
2018-10-17T10:10:05.622Z,13.75
2018-10-17T10:11:05.707Z,13.69
2018-10-17T10:12:05.711Z,13.66
2018-10-17T10:13:05.721Z,13.62
2018-10-17T10:14:05.765Z,13.67
2018-10-17T10:15:05.808Z,13.70
2018-10-17T10:16:05.944Z,13.63
2018-10-17T10:17:05.965Z,13.70
2018-10-17T10:18:05.938Z,13.82
2018-10-17T10:19:05.971Z,13.77
2018-10-17T10:20:06.018Z,13.81
2018-10-17T10:21:06.065Z,13.84
2018-10-17T10:22:06.159Z,13.85
2018-10-17T10:23:06.213Z,13.89
2018-10-17T10:24:06.214Z,13.89
2018-10-17T10:25:06.241Z,13.95
2018-10-17T10:26:06.262Z,13.95
2018-10-17T10:27:06.306Z,13.97
2018-10-17T10:28:06.420Z,14.03
2018-10-17T10:29:06.388Z,14.02
2018-10-17T10:30:06.431Z,14.15
2018-10-17T10:31:06.468Z,14.24
2018-10-17T10:32:06.511Z,14.18
2018-10-17T10:33:06.652Z,14.22
2018-10-17T10:34:06.685Z,14.21
2018-10-17T10:35:06.634Z,14.37
2018-10-17T10:36:06.691Z,14.32
2018-10-17T10:37:06.718Z,14.43
2018-10-17T10:38:06.766Z,14.42
2018-10-17T10:39:06.801Z,14.58
2018-10-17T10:40:06.912Z,14.47
2018-10-17T10:41:06.885Z,14.61
2018-10-17T10:42:07.016Z,14.65
2018-10-17T10:43:06.967Z,14.73
2018-10-17T10:44:07.033Z,14.70
2018-10-17T10:45:07.070Z,14.77
2018-10-17T10:46:07.090Z,14.86
2018-10-17T10:47:07.235Z,14.81
2018-10-17T10:48:07.241Z,14.83
2018-10-17T10:49:07.279Z,14.84
2018-10-17T10:50:07.313Z,14.99
2018-10-17T10:51:07.356Z,15.07
2018-10-17T10:52:07.597Z,15.03
2018-10-17T10:53:07.451Z,15.02
2018-10-17T10:54:07.477Z,15.07
2018-10-17T10:55:07.467Z,15.11
2018-10-17T10:56:07.534Z,15.13
2018-10-17T10:57:07.571Z,15.23
2018-10-17T10:58:07.740Z,15.28
2018-10-17T10:59:07.673Z,15.28
2018-10-17T11:00:07.710Z,15.34
2018-10-17T11:01:07.717Z,15.32
2018-10-17T11:02:07.779Z,15.36
2018-10-17T11:03:07.806Z,15.44
2018-10-17T11:04:07.844Z,15.53
2018-10-17T11:05:08.020Z,15.53
2018-10-17T11:06:07.927Z,15.60
2018-10-17T11:07:07.967Z,15.64
2018-10-17T11:08:08.052Z,15.69
2018-10-17T11:09:08.055Z,15.76
2018-10-17T11:10:08.099Z,15.68
2018-10-17T11:11:08.190Z,15.84
2018-10-17T11:12:08.185Z,15.80
2018-10-17T11:13:08.222Z,15.75
2018-10-17T11:14:08.403Z,15.89
2018-10-17T11:15:08.402Z,15.87
2018-10-17T11:16:08.347Z,16.02
2018-10-17T11:17:08.397Z,15.97
2018-10-17T11:18:08.432Z,16.07
2018-10-17T11:19:08.472Z,16.11
2018-10-17T11:20:08.514Z,16.15
2018-10-17T11:21:08.575Z,16.24
2018-10-17T11:22:08.605Z,16.30
2018-10-17T11:23:08.687Z,16.41
2018-10-17T11:24:08.685Z,16.42
2018-10-17T11:25:08.738Z,16.31
2018-10-17T11:26:09.266Z,16.43
2018-10-17T11:27:09.188Z,16.50
2018-10-17T11:28:08.852Z,16.53
2018-10-17T11:29:08.928Z,16.61
2018-10-17T11:30:08.945Z,16.66
2018-10-17T11:31:08.983Z,16.73
2018-10-17T11:32:09.022Z,16.76
2018-10-17T11:33:09.118Z,16.85
2018-10-17T11:34:09.116Z,16.86
2018-10-17T11:35:09.211Z,17.04
2018-10-17T11:36:09.245Z,17.08
2018-10-17T11:37:09.234Z,17.21
2018-10-17T11:38:09.276Z,17.25
2018-10-17T11:39:09.384Z,17.28
2018-10-17T11:40:09.429Z,17.33
2018-10-17T11:41:09.510Z,17.51
2018-10-17T11:42:09.448Z,17.52
2018-10-17T11:43:09.498Z,17.62
2018-10-17T11:44:09.531Z,17.62
2018-10-17T11:45:09.645Z,17.66
2018-10-17T11:46:09.619Z,17.70
2018-10-17T11:47:09.740Z,17.70
2018-10-17T11:48:09.704Z,17.78
2018-10-17T11:49:09.745Z,17.81
2018-10-17T11:50:09.789Z,17.89
2018-10-17T11:51:09.923Z,17.95
2018-10-17T11:52:09.883Z,17.93
2018-10-17T11:53:09.995Z,17.97
2018-10-17T11:54:09.961Z,18.17
2018-10-17T11:55:10.002Z,18.15
2018-10-17T11:56:10.047Z,18.29
2018-10-17T11:57:10.324Z,18.42
2018-10-17T11:58:10.131Z,18.45
2018-10-17T11:59:10.208Z,18.52
2018-10-17T12:00:10.219Z,18.55
2018-10-17T12:01:10.262Z,18.62
2018-10-17T12:02:10.304Z,18.72
2018-10-17T12:03:10.433Z,18.70
2018-10-17T12:04:10.602Z,18.76
2018-10-17T12:05:10.768Z,18.78
2018-10-17T12:06:10.497Z,18.88
2018-10-17T12:07:10.527Z,18.81
2018-10-17T12:08:10.562Z,18.88
2018-10-17T12:09:10.698Z,18.88
2018-10-17T12:10:10.653Z,18.87
2018-10-17T12:11:10.740Z,18.82
2018-10-17T12:12:10.793Z,18.90
2018-10-17T12:13:10.782Z,18.98
2018-10-17T12:14:10.821Z,18.94
2018-10-17T12:15:10.914Z,18.95
2018-10-17T12:16:10.907Z,18.92
2018-10-17T12:17:10.953Z,18.91
2018-10-17T12:18:11.126Z,19.04
2018-10-17T12:19:11.070Z,19.16
2018-10-17T12:20:11.083Z,19.21
2018-10-17T12:21:11.284Z,19.18
2018-10-17T12:22:11.172Z,19.16
2018-10-17T12:23:11.211Z,19.13
2018-10-17T12:24:11.351Z,19.22
2018-10-17T12:25:11.298Z,19.23
2018-10-17T12:26:11.342Z,19.26
2018-10-17T12:27:11.434Z,19.33
2018-10-17T12:28:11.692Z,19.33
2018-10-17T12:29:11.473Z,19.26
2018-10-17T12:30:11.657Z,19.29
2018-10-17T12:31:11.557Z,19.44
2018-10-17T12:32:11.610Z,19.39
2018-10-17T12:33:11.726Z,19.40
2018-10-17T12:34:11.690Z,19.40
2018-10-17T12:35:11.880Z,19.54
2018-10-17T12:36:11.776Z,19.48
2018-10-17T12:37:11.820Z,19.48
2018-10-17T12:38:11.864Z,19.61
2018-10-17T12:39:11.943Z,19.65
2018-10-17T12:40:12.111Z,19.68
2018-10-17T12:41:12.105Z,19.65
2018-10-17T12:42:12.039Z,19.73
2018-10-17T12:43:12.085Z,19.76
2018-10-17T12:44:12.211Z,19.81
2018-10-17T12:45:12.231Z,19.83
2018-10-17T12:46:12.218Z,19.76
2018-10-17T12:47:12.320Z,19.73
2018-10-17T12:48:12.300Z,19.81
2018-10-17T12:49:12.367Z,19.81
2018-10-17T12:50:12.486Z,19.83
2018-10-17T12:51:12.431Z,19.78
2018-10-17T12:52:12.604Z,19.84
2018-10-17T12:53:12.580Z,19.81
2018-10-17T12:54:12.562Z,19.81